createdAt,value
2018-11-21T00:00:18.288Z,35.50
2018-11-21T00:01:18.286Z,37.00
2018-11-21T00:02:18.166Z,36.40
2018-11-21T00:03:18.165Z,36.40
2018-11-21T00:04:18.044Z,36.60
2018-11-21T00:05:18.045Z,37.20
2018-11-21T00:06:18.252Z,38.70
2018-11-21T00:07:17.929Z,38.10
2018-11-21T00:08:17.926Z,37.30
2018-11-21T00:09:17.806Z,36.90
2018-11-21T00:10:18.174Z,37.10
2018-11-21T00:11:17.686Z,36.10
2018-11-21T00:12:17.769Z,37.10
2018-11-21T00:13:17.685Z,37.30
2018-11-21T00:14:17.582Z,35.80
2018-11-21T00:15:17.562Z,38.00
2018-11-21T00:16:17.526Z,37.50
2018-11-21T00:17:17.442Z,37.00
2018-11-21T00:18:17.451Z,33.80
2018-11-21T00:19:17.322Z,38.60
2018-11-21T00:20:17.327Z,35.70
2018-11-21T00:21:17.201Z,40.20
2018-11-21T00:22:17.200Z,39.60
2018-11-21T00:23:17.085Z,39.30
2018-11-21T00:24:17.082Z,39.40
2018-11-21T00:25:17.089Z,42.20
2018-11-21T00:26:16.966Z,41.60
2018-11-21T00:27:16.963Z,38.60
2018-11-21T00:28:16.839Z,41.00
2018-11-21T00:29:16.840Z,39.20
2018-11-21T00:30:16.836Z,38.60
2018-11-21T00:31:16.720Z,40.50
2018-11-21T00:32:16.720Z,40.40
2018-11-21T00:33:16.601Z,40.90
2018-11-21T00:34:16.717Z,41.30
2018-11-21T00:35:16.482Z,38.10
2018-11-21T00:36:16.478Z,41.40
2018-11-21T00:37:16.478Z,39.50
2018-11-21T00:38:16.361Z,40.80
2018-11-21T00:39:16.359Z,41.00
2018-11-21T00:40:16.240Z,39.40
2018-11-21T00:41:16.237Z,40.70
2018-11-21T00:42:16.119Z,43.40
2018-11-21T00:43:16.117Z,40.00
2018-11-21T00:44:16.116Z,38.40
2018-11-21T00:45:15.996Z,42.40
2018-11-21T00:46:15.996Z,41.60
2018-11-21T00:47:15.876Z,39.70
2018-11-21T00:48:15.877Z,38.80
2018-11-21T00:49:15.875Z,41.80
2018-11-21T00:50:15.757Z,40.60
2018-11-21T00:51:15.758Z,36.80
2018-11-21T00:52:15.637Z,36.50
2018-11-21T00:53:15.642Z,36.30
2018-11-21T00:54:15.515Z,37.50
2018-11-21T00:55:15.517Z,41.60
2018-11-21T00:56:15.519Z,38.70
2018-11-21T00:57:15.394Z,39.40
2018-11-21T00:58:15.397Z,37.00
2018-11-21T00:59:15.277Z,37.40
2018-11-21T01:00:15.273Z,39.40
2018-11-21T01:01:15.275Z,36.20
2018-11-21T01:02:15.154Z,38.90
2018-11-21T01:03:15.157Z,38.40
2018-11-21T01:04:15.037Z,40.80
2018-11-21T01:05:15.035Z,37.20
2018-11-21T01:06:14.915Z,39.90
2018-11-21T01:07:14.913Z,37.80
2018-11-21T01:08:14.914Z,37.00
2018-11-21T01:09:14.795Z,37.40
2018-11-21T01:10:14.794Z,38.20
2018-11-21T01:11:14.673Z,37.50
2018-11-21T01:12:14.674Z,37.30
2018-11-21T01:13:14.671Z,38.40
2018-11-21T01:14:14.554Z,36.90
2018-11-21T01:15:14.558Z,40.30
2018-11-21T01:16:14.431Z,38.30
2018-11-21T01:17:14.430Z,38.30
2018-11-21T01:18:14.318Z,38.90
2018-11-21T01:19:14.310Z,39.00
2018-11-21T01:20:14.319Z,40.80
2018-11-21T01:21:14.191Z,37.80
2018-11-21T01:22:14.192Z,39.20
2018-11-21T01:23:14.071Z,37.40
2018-11-21T01:24:14.068Z,36.60
2018-11-21T01:25:14.078Z,37.10
2018-11-21T01:26:13.951Z,40.70
2018-11-21T01:27:13.949Z,35.90
2018-11-21T01:28:13.832Z,38.90
2018-11-21T01:29:13.827Z,41.90
2018-11-21T01:30:13.706Z,36.80
2018-11-21T01:31:13.709Z,36.20
2018-11-21T01:32:13.713Z,37.60
2018-11-21T01:33:13.588Z,36.10
2018-11-21T01:34:13.585Z,40.70
2018-11-21T01:35:13.465Z,38.60
2018-11-21T01:36:13.468Z,36.80
2018-11-21T01:37:13.428Z,39.20
2018-11-21T01:38:13.345Z,41.10
2018-11-21T01:39:13.346Z,38.90
2018-11-21T01:40:13.227Z,38.80
2018-11-21T01:41:13.227Z,38.60
2018-11-21T01:42:13.108Z,38.80
2018-11-21T01:43:13.105Z,37.30
2018-11-21T01:44:13.107Z,39.90
2018-11-21T01:45:12.985Z,39.50
2018-11-21T01:46:12.985Z,40.50
2018-11-21T01:47:12.865Z,38.70
2018-11-21T01:48:12.870Z,39.40
2018-11-21T01:49:12.751Z,40.00
2018-11-21T01:50:12.743Z,40.80
2018-11-21T01:51:12.744Z,44.40
2018-11-21T01:52:12.623Z,40.80
2018-11-21T01:53:12.623Z,41.40
2018-11-21T01:54:12.503Z,40.30
2018-11-21T01:55:12.503Z,40.40
2018-11-21T01:56:12.464Z,38.20
2018-11-21T01:57:12.383Z,38.90
2018-11-21T01:58:12.382Z,41.00
2018-11-21T01:59:12.275Z,39.50
2018-11-21T02:00:12.261Z,40.10
2018-11-21T02:01:12.141Z,39.60
2018-11-21T02:02:12.143Z,37.90
2018-11-21T02:03:12.144Z,40.90
2018-11-21T02:04:12.022Z,40.00
2018-11-21T02:05:12.019Z,42.20
2018-11-21T02:06:11.903Z,42.10
2018-11-21T02:07:11.901Z,42.10
2018-11-21T02:08:11.897Z,42.40
2018-11-21T02:09:11.782Z,43.00
2018-11-21T02:10:11.780Z,43.50
2018-11-21T02:11:11.661Z,42.50
2018-11-21T02:12:11.659Z,43.20
2018-11-21T02:13:11.541Z,44.50
2018-11-21T02:14:11.539Z,40.40
2018-11-21T02:15:11.540Z,42.20
2018-11-21T02:16:11.423Z,41.20
2018-11-21T02:17:11.422Z,39.20
2018-11-21T02:18:11.299Z,41.70
2018-11-21T02:19:11.295Z,41.70
2018-11-21T02:20:11.182Z,41.30
2018-11-21T02:21:11.174Z,40.90
2018-11-21T02:22:11.175Z,41.20
2018-11-21T02:23:11.056Z,42.70
2018-11-21T02:24:11.057Z,40.80
2018-11-21T02:25:10.943Z,41.10
2018-11-21T02:26:10.938Z,39.70
2018-11-21T02:27:10.898Z,42.10
2018-11-21T02:28:10.820Z,43.90
2018-11-21T02:29:10.817Z,38.30
2018-11-21T02:30:10.700Z,41.70
2018-11-21T02:31:10.701Z,37.70
2018-11-21T02:32:10.579Z,39.90
2018-11-21T02:33:10.573Z,39.40
2018-11-21T02:34:10.579Z,41.30
2018-11-21T02:35:10.452Z,41.40
2018-11-21T02:36:10.457Z,40.00
2018-11-21T02:37:10.334Z,38.70
2018-11-21T02:38:10.332Z,40.30
2018-11-21T02:39:10.224Z,43.00
2018-11-21T02:40:10.215Z,36.40
2018-11-21T02:41:10.218Z,40.10
2018-11-21T02:42:10.093Z,40.60
2018-11-21T02:43:10.096Z,40.90
2018-11-21T02:44:09.973Z,39.00
2018-11-21T02:45:09.970Z,39.40
2018-11-21T02:46:09.983Z,39.20
2018-11-21T02:47:09.854Z,39.80
2018-11-21T02:48:09.849Z,41.40
2018-11-21T02:49:09.733Z,40.00
2018-11-21T02:50:09.731Z,38.40
2018-11-21T02:51:09.614Z,39.70
2018-11-21T02:52:09.616Z,40.40
2018-11-21T02:53:09.610Z,38.60
2018-11-21T02:54:09.496Z,40.30
2018-11-21T02:55:09.492Z,39.10
2018-11-21T02:56:09.371Z,40.70
2018-11-21T02:57:09.373Z,41.10
2018-11-21T02:58:09.251Z,39.30
2018-11-21T02:59:09.253Z,39.80
2018-11-21T03:00:09.256Z,37.70
2018-11-21T03:01:09.133Z,41.10
2018-11-21T03:02:09.129Z,39.50
2018-11-21T03:03:09.011Z,38.00
2018-11-21T03:04:09.009Z,40.00
2018-11-21T03:05:09.014Z,39.00
2018-11-21T03:06:08.885Z,40.20
2018-11-21T03:07:08.887Z,39.30
2018-11-21T03:08:08.774Z,38.80
2018-11-21T03:09:08.770Z,43.90
2018-11-21T03:10:08.644Z,40.70
2018-11-21T03:11:08.652Z,40.50
2018-11-21T03:12:08.649Z,40.60
2018-11-21T03:13:08.525Z,40.10
2018-11-21T03:14:08.529Z,38.20
2018-11-21T03:15:08.407Z,41.60
2018-11-21T03:16:08.404Z,39.50
2018-11-21T03:17:08.367Z,40.90
2018-11-21T03:18:08.283Z,37.40
2018-11-21T03:19:08.285Z,37.40
2018-11-21T03:20:08.168Z,39.30
2018-11-21T03:21:08.162Z,40.70
2018-11-21T03:22:08.046Z,39.40
2018-11-21T03:23:08.046Z,39.90
2018-11-21T03:24:08.048Z,43.10
2018-11-21T03:25:07.924Z,40.10
2018-11-21T03:26:07.921Z,40.10
2018-11-21T03:27:07.806Z,39.90
2018-11-21T03:28:07.816Z,39.00
2018-11-21T03:29:07.686Z,38.90
2018-11-21T03:30:07.681Z,39.30
2018-11-21T03:31:07.682Z,38.20
2018-11-21T03:32:07.568Z,39.20
2018-11-21T03:33:07.562Z,39.80
2018-11-21T03:34:07.440Z,39.20
2018-11-21T03:35:07.445Z,40.30
2018-11-21T03:36:07.403Z,38.40
2018-11-21T03:37:07.322Z,40.00
2018-11-21T03:38:07.320Z,38.40
2018-11-21T03:39:07.203Z,40.30
2018-11-21T03:40:07.202Z,40.60
2018-11-21T03:41:07.079Z,37.20
2018-11-21T03:42:07.080Z,38.30
2018-11-21T03:43:07.080Z,41.20
2018-11-21T03:44:06.962Z,39.50
2018-11-21T03:45:06.962Z,39.30
2018-11-21T03:46:06.846Z,40.00
2018-11-21T03:47:06.837Z,39.20
2018-11-21T03:48:06.801Z,38.60
2018-11-21T03:49:06.719Z,39.70
2018-11-21T03:50:06.717Z,41.40
2018-11-21T03:51:06.599Z,41.60
2018-11-21T03:52:06.601Z,39.10
2018-11-21T03:53:06.477Z,40.40
2018-11-21T03:54:06.477Z,39.90
2018-11-21T03:55:06.481Z,40.50
2018-11-21T03:56:06.356Z,40.90
2018-11-21T03:57:06.360Z,39.20
2018-11-21T03:58:06.243Z,39.70
2018-11-21T03:59:06.236Z,41.40
2018-11-21T04:00:06.118Z,40.10
2018-11-21T04:01:06.116Z,39.50
2018-11-21T04:02:06.113Z,40.30
2018-11-21T04:03:05.997Z,40.20
2018-11-21T04:04:05.995Z,40.90
2018-11-21T04:05:05.877Z,40.10
2018-11-21T04:06:05.876Z,40.40
2018-11-21T04:07:05.757Z,39.80
2018-11-21T04:08:05.756Z,40.50
2018-11-21T04:09:05.753Z,41.90
2018-11-21T04:10:05.641Z,39.60
2018-11-21T04:11:05.638Z,41.40
2018-11-21T04:12:05.513Z,42.60
2018-11-21T04:13:05.513Z,41.30
2018-11-21T04:14:05.511Z,38.30
2018-11-21T04:15:05.391Z,43.00
2018-11-21T04:16:05.391Z,40.50
2018-11-21T04:17:05.277Z,37.80
2018-11-21T04:18:05.280Z,41.80
2018-11-21T04:19:05.157Z,42.60
2018-11-21T04:20:05.153Z,40.90
2018-11-21T04:21:05.168Z,41.50
2018-11-21T04:22:05.032Z,42.40
2018-11-21T04:23:05.030Z,39.30
2018-11-21T04:24:04.913Z,40.10
2018-11-21T04:25:04.910Z,40.90
2018-11-21T04:26:04.789Z,41.10
2018-11-21T04:27:04.789Z,42.80
2018-11-21T04:28:04.792Z,43.60
2018-11-21T04:29:04.671Z,43.00
2018-11-21T04:30:04.669Z,41.20
2018-11-21T04:31:04.549Z,42.00
2018-11-21T04:32:04.547Z,41.90
2018-11-21T04:33:04.548Z,40.30
2018-11-21T04:34:04.427Z,42.10
2018-11-21T04:35:04.427Z,41.40
2018-11-21T04:36:04.310Z,42.40
2018-11-21T04:37:04.308Z,40.40
2018-11-21T04:38:04.189Z,42.50
2018-11-21T04:39:04.187Z,42.70
2018-11-21T04:40:04.196Z,43.70
2018-11-21T04:41:04.070Z,41.70
2018-11-21T04:42:04.072Z,42.00
2018-11-21T04:43:03.948Z,40.90
2018-11-21T04:44:03.949Z,44.80
2018-11-21T04:45:03.829Z,43.00
2018-11-21T04:46:03.825Z,40.70
2018-11-21T04:47:03.825Z,47.10
2018-11-21T04:48:03.705Z,41.60
2018-11-21T04:49:03.703Z,41.50
2018-11-21T04:50:03.584Z,42.60
2018-11-21T04:51:03.582Z,48.00
2018-11-21T04:52:03.549Z,46.90
2018-11-21T04:53:03.464Z,43.20
2018-11-21T04:54:03.472Z,46.30
2018-11-21T04:55:03.343Z,46.70
2018-11-21T04:56:03.343Z,45.60
2018-11-21T04:57:03.221Z,47.50
2018-11-21T04:58:03.228Z,42.10
2018-11-21T04:59:03.221Z,44.00
2018-11-21T05:00:03.100Z,44.50
2018-11-21T05:01:03.102Z,45.10
2018-11-21T05:02:02.983Z,43.70
2018-11-21T05:03:02.979Z,45.80
2018-11-21T05:04:02.861Z,45.00
2018-11-21T05:05:02.861Z,43.30
2018-11-21T05:06:02.864Z,45.50
2018-11-21T05:07:02.746Z,43.10
2018-11-21T05:08:02.744Z,44.50
2018-11-21T05:09:02.620Z,43.50
2018-11-21T05:10:02.623Z,43.90
2018-11-21T05:11:02.616Z,41.60
2018-11-21T05:12:02.501Z,44.80
2018-11-21T05:13:02.499Z,42.10
2018-11-21T05:14:02.381Z,44.20
2018-11-21T05:15:02.381Z,43.30
2018-11-21T05:16:02.261Z,47.00
2018-11-21T05:17:02.258Z,46.90
2018-11-21T05:18:02.265Z,47.20
2018-11-21T05:19:02.137Z,49.90
2018-11-21T05:20:02.141Z,47.00
2018-11-21T05:21:02.016Z,46.60
2018-11-21T05:22:02.018Z,47.30
2018-11-21T05:23:01.896Z,47.60
2018-11-21T05:24:01.898Z,50.50
2018-11-21T05:25:01.896Z,48.10
2018-11-21T05:26:01.776Z,47.80
2018-11-21T05:27:01.777Z,51.80
2018-11-21T05:28:01.654Z,46.40
2018-11-21T05:29:01.665Z,46.00
2018-11-21T05:30:01.621Z,46.20
2018-11-21T05:31:01.534Z,46.20
2018-11-21T05:32:01.535Z,47.30
2018-11-21T05:33:01.415Z,47.10
2018-11-21T05:34:01.416Z,48.50
2018-11-21T05:35:01.297Z,47.20
2018-11-21T05:36:01.292Z,48.00
2018-11-21T05:37:01.293Z,48.80
2018-11-21T05:38:01.172Z,46.30
2018-11-21T05:39:01.174Z,49.30
2018-11-21T05:40:01.053Z,42.20
2018-11-21T05:41:01.054Z,48.20
2018-11-21T05:42:00.932Z,47.20
2018-11-21T05:43:00.938Z,48.10
2018-11-21T05:44:00.931Z,45.40
2018-11-21T05:45:00.813Z,46.80
2018-11-21T05:46:00.819Z,50.40
2018-11-21T05:47:00.699Z,49.70
2018-11-21T05:48:00.692Z,48.60
2018-11-21T05:49:00.571Z,45.20
2018-11-21T05:50:00.574Z,47.40
2018-11-21T05:51:00.574Z,46.10
2018-11-21T05:52:00.457Z,45.70
2018-11-21T05:53:00.452Z,44.80
2018-11-21T05:54:00.330Z,47.50
2018-11-21T05:55:00.329Z,47.60
2018-11-21T05:56:00.293Z,46.60
2018-11-21T05:57:00.214Z,44.10
2018-11-21T05:58:00.209Z,51.20
2018-11-21T05:59:00.091Z,46.50
2018-11-21T06:00:00.092Z,46.90
2018-11-21T06:00:59.969Z,45.50
2018-11-21T06:01:59.967Z,50.10
2018-11-21T06:02:59.969Z,49.20
2018-11-21T06:03:59.848Z,47.40
2018-11-21T06:04:59.847Z,51.60
2018-11-21T06:05:59.732Z,51.50
2018-11-21T06:06:59.726Z,50.60
2018-11-21T06:07:59.608Z,53.50
2018-11-21T06:08:59.605Z,50.00
2018-11-21T06:09:59.610Z,54.50
2018-11-21T06:10:59.487Z,50.60
2018-11-21T06:12:04.306Z,49.20
2018-11-21T06:12:59.368Z,47.00
2018-11-21T06:13:59.368Z,50.90
2018-11-21T06:14:59.244Z,50.70
2018-11-21T06:15:59.245Z,50.20
2018-11-21T06:16:59.248Z,48.60
2018-11-21T06:17:59.126Z,54.40
2018-11-21T06:18:59.124Z,52.20
2018-11-21T06:19:59.004Z,54.50
2018-11-21T06:20:59.005Z,53.30
2018-11-21T06:21:58.967Z,54.30
2018-11-21T06:22:58.884Z,51.80
2018-11-21T06:23:58.881Z,57.00
2018-11-21T06:24:58.763Z,55.30
2018-11-21T06:25:58.761Z,58.80
2018-11-21T06:26:58.647Z,58.90
2018-11-21T06:27:58.643Z,61.70
2018-11-21T06:28:58.643Z,54.80
2018-11-21T06:29:58.523Z,54.70
2018-11-21T06:30:58.521Z,53.70
2018-11-21T06:31:58.401Z,55.50
2018-11-21T06:32:58.999Z,58.10
2018-11-21T06:33:58.282Z,51.50
2018-11-21T06:34:58.284Z,55.60
2018-11-21T06:35:58.281Z,54.00
2018-11-21T06:36:58.163Z,52.90
2018-11-21T06:37:58.162Z,53.90
2018-11-21T06:38:58.039Z,55.50
2018-11-21T06:39:58.045Z,52.20
2018-11-21T06:40:57.918Z,51.40
2018-11-21T06:41:57.919Z,52.40
2018-11-21T06:42:57.919Z,51.90
2018-11-21T06:43:57.799Z,52.20
2018-11-21T06:44:57.798Z,54.00
2018-11-21T06:45:57.683Z,52.50
2018-11-21T06:46:57.679Z,52.70
2018-11-21T06:47:57.640Z,54.90
2018-11-21T06:48:57.559Z,54.10
2018-11-21T06:49:57.560Z,54.70
2018-11-21T06:50:57.437Z,52.00
2018-11-21T06:51:57.437Z,52.80
2018-11-21T06:52:57.316Z,50.30
2018-11-21T06:53:57.315Z,51.60
2018-11-21T06:54:57.317Z,49.60
2018-11-21T06:55:57.203Z,48.80
2018-11-21T06:56:57.194Z,49.50
2018-11-21T06:57:57.078Z,49.70
2018-11-21T06:58:57.074Z,53.40
2018-11-21T06:59:56.955Z,48.50
2018-11-21T07:00:56.963Z,49.90
2018-11-21T07:01:56.955Z,50.20
2018-11-21T07:02:56.834Z,49.20
2018-11-21T07:03:56.836Z,51.00
2018-11-21T07:04:56.717Z,49.30
2018-11-21T07:05:56.712Z,48.00
2018-11-21T07:06:56.591Z,51.00
2018-11-21T07:07:56.592Z,49.90
2018-11-21T07:08:56.593Z,50.80
2018-11-21T07:09:56.472Z,49.00
2018-11-21T07:10:56.472Z,47.40
2018-11-21T07:11:56.354Z,48.50
2018-11-21T07:12:56.351Z,48.30
2018-11-21T07:13:56.231Z,49.10
2018-11-21T07:14:56.232Z,48.00
2018-11-21T07:15:56.232Z,47.60
2018-11-21T07:16:56.110Z,46.30
2018-11-21T07:17:56.109Z,45.70
2018-11-21T07:18:55.990Z,47.90
2018-11-21T07:19:55.992Z,47.40
2018-11-21T07:20:55.987Z,47.00
2018-11-21T07:21:55.878Z,43.60
2018-11-21T07:22:55.870Z,46.20
2018-11-21T07:23:55.751Z,47.30
2018-11-21T07:24:55.750Z,47.90
2018-11-21T07:25:55.633Z,42.90
2018-11-21T07:26:55.631Z,45.50
2018-11-21T07:27:55.632Z,46.70
2018-11-21T07:28:55.509Z,48.10
2018-11-21T07:29:55.508Z,48.10
2018-11-21T07:30:55.388Z,44.60
2018-11-21T07:31:55.390Z,47.90
2018-11-21T07:32:55.270Z,46.00
2018-11-21T07:33:59.365Z,44.70
2018-11-21T07:34:55.387Z,46.40
2018-11-21T07:35:55.149Z,45.60
2018-11-21T07:36:55.150Z,44.90
2018-11-21T07:37:55.029Z,46.30
2018-11-21T07:38:55.024Z,46.60
2018-11-21T07:39:54.906Z,46.80
2018-11-21T07:40:54.904Z,48.40
2018-11-21T07:41:54.904Z,47.20
2018-11-21T07:42:54.786Z,42.20
2018-11-21T07:43:54.786Z,44.20
2018-11-21T07:44:54.663Z,44.60
2018-11-21T07:45:54.663Z,45.10
2018-11-21T07:46:54.665Z,49.20
2018-11-21T07:47:54.543Z,48.30
2018-11-21T07:48:54.550Z,45.10
2018-11-21T07:49:54.426Z,44.80
2018-11-21T07:50:54.423Z,44.00
2018-11-21T07:51:54.301Z,43.80
2018-11-21T07:52:54.303Z,45.70
2018-11-21T07:53:54.303Z,45.90
2018-11-21T07:54:54.187Z,43.20
2018-11-21T07:55:54.183Z,46.80
2018-11-21T07:56:54.063Z,45.40
2018-11-21T07:57:54.061Z,45.80
2018-11-21T07:58:53.943Z,44.60
2018-11-21T07:59:54.500Z,45.40
2018-11-21T08:00:53.944Z,43.90
2018-11-21T08:01:53.821Z,45.80
2018-11-21T08:02:53.822Z,44.80
2018-11-21T08:03:53.701Z,46.90
2018-11-21T08:04:53.703Z,45.70
2018-11-21T08:05:53.701Z,47.30
2018-11-21T08:06:53.579Z,47.40
2018-11-21T08:07:53.581Z,48.30
2018-11-21T08:08:53.465Z,45.60
2018-11-21T08:09:53.460Z,46.80
2018-11-21T08:10:53.339Z,43.80
2018-11-21T08:11:53.341Z,46.70
2018-11-21T08:12:53.341Z,46.30
2018-11-21T08:13:53.216Z,46.20
2018-11-21T08:14:53.216Z,46.00
2018-11-21T08:15:53.098Z,43.80
2018-11-21T08:16:53.097Z,44.80
2018-11-21T08:17:52.975Z,44.10
2018-11-21T08:18:52.978Z,48.20
2018-11-21T08:19:52.981Z,47.10
2018-11-21T08:20:52.858Z,48.70
2018-11-21T08:21:52.856Z,45.50
2018-11-21T08:22:52.738Z,44.50
2018-11-21T08:23:55.638Z,44.80
2018-11-21T08:24:52.740Z,46.20
2018-11-21T08:25:52.615Z,45.80
2018-11-21T08:26:52.613Z,45.50
2018-11-21T08:27:52.494Z,50.10
2018-11-21T08:28:52.493Z,44.30
2018-11-21T08:29:52.375Z,46.60
2018-11-21T08:30:52.374Z,44.50
2018-11-21T08:31:52.376Z,44.90
2018-11-21T08:32:52.253Z,44.60
2018-11-21T08:33:52.254Z,45.50
2018-11-21T08:34:52.132Z,47.40
2018-11-21T08:35:52.132Z,47.90
2018-11-21T08:36:52.095Z,46.10
2018-11-21T08:37:52.012Z,43.20
2018-11-21T08:38:52.014Z,45.00
2018-11-21T08:39:51.892Z,44.70
2018-11-21T08:40:51.893Z,45.90
2018-11-21T08:41:51.772Z,43.20
2018-11-21T08:42:51.774Z,43.10
2018-11-21T08:43:51.777Z,42.50
2018-11-21T08:44:51.655Z,44.10
2018-11-21T08:45:51.650Z,43.00
2018-11-21T08:46:51.532Z,44.10
2018-11-21T08:47:51.532Z,42.80
2018-11-21T08:48:51.409Z,42.40
2018-11-21T08:49:51.409Z,42.30
2018-11-21T08:50:51.410Z,44.10
2018-11-21T08:51:51.297Z,44.50
2018-11-21T08:52:51.290Z,43.10
2018-11-21T08:53:51.169Z,42.50
2018-11-21T08:54:51.169Z,42.50
2018-11-21T08:55:51.168Z,43.00
2018-11-21T08:56:51.047Z,45.70
2018-11-21T08:57:51.047Z,43.60
2018-11-21T08:58:50.929Z,43.60
2018-11-21T08:59:50.929Z,40.80
2018-11-21T09:00:50.807Z,44.10
2018-11-21T09:01:50.807Z,44.20
2018-11-21T09:02:50.846Z,42.30
2018-11-21T09:03:50.702Z,40.50
2018-11-21T09:04:50.690Z,43.30
2018-11-21T09:05:50.571Z,42.40
2018-11-21T09:06:50.565Z,41.80
2018-11-21T09:07:50.562Z,41.20
2018-11-21T09:08:50.445Z,40.60
2018-11-21T09:09:50.445Z,39.30
2018-11-21T09:10:50.326Z,40.30
2018-11-21T09:11:50.327Z,40.50
2018-11-21T09:12:50.287Z,40.20
2018-11-21T09:13:53.141Z,43.40
2018-11-21T09:14:50.203Z,40.30
2018-11-21T09:15:50.088Z,41.10
2018-11-21T09:16:50.087Z,41.30
2018-11-21T09:17:49.966Z,41.10
2018-11-21T09:18:49.962Z,37.70
2018-11-21T09:19:49.937Z,41.20
2018-11-21T09:20:49.842Z,38.80
2018-11-21T09:21:49.842Z,37.10
2018-11-21T09:22:49.721Z,39.90
2018-11-21T09:23:49.725Z,38.50
2018-11-21T09:24:49.606Z,35.50
2018-11-21T09:25:49.602Z,37.00
2018-11-21T09:26:49.600Z,36.70
2018-11-21T09:27:49.483Z,38.00
2018-11-21T09:28:49.483Z,36.60
2018-11-21T09:29:49.365Z,37.30
2018-11-21T09:30:49.359Z,36.20
2018-11-21T09:31:49.359Z,38.90
2018-11-21T09:32:49.241Z,37.10
2018-11-21T09:33:49.240Z,37.70
2018-11-21T09:34:49.118Z,35.10
2018-11-21T09:35:49.127Z,34.80
2018-11-21T09:36:48.997Z,37.70
2018-11-21T09:37:49.001Z,35.60
2018-11-21T09:38:49.001Z,36.30
2018-11-21T09:39:48.881Z,36.40
2018-11-21T09:40:48.877Z,34.50
2018-11-21T09:41:48.760Z,36.50
2018-11-21T09:42:48.759Z,34.80
2018-11-21T09:43:48.760Z,35.30
2018-11-21T09:44:48.636Z,34.40
2018-11-21T09:45:48.635Z,39.50
2018-11-21T09:46:48.526Z,33.90
2018-11-21T09:47:48.518Z,37.40
2018-11-21T09:48:48.478Z,35.20
2018-11-21T09:49:48.397Z,34.80
2018-11-21T09:50:48.396Z,36.40
2018-11-21T09:51:48.275Z,36.30
2018-11-21T09:52:50.398Z,37.60
2018-11-21T09:53:48.155Z,36.60
2018-11-21T09:54:48.152Z,34.40
2018-11-21T09:55:48.335Z,37.60
2018-11-21T09:56:48.035Z,35.90
2018-11-21T09:57:48.037Z,33.40
2018-11-21T09:58:47.921Z,37.10
2018-11-21T09:59:47.912Z,33.70
2018-11-21T10:00:47.912Z,33.90
2018-11-21T10:01:47.795Z,36.40
2018-11-21T10:02:47.801Z,33.60
2018-11-21T10:03:47.677Z,40.70
2018-11-21T10:04:47.672Z,35.10
2018-11-21T10:05:47.635Z,37.70
2018-11-21T10:06:47.554Z,35.30
2018-11-21T10:07:47.551Z,36.00
2018-11-21T10:08:47.433Z,36.80
2018-11-21T10:09:47.433Z,36.70
2018-11-21T10:10:47.312Z,36.80
2018-11-21T10:11:47.311Z,36.10
2018-11-21T10:12:47.313Z,35.70
2018-11-21T10:13:47.193Z,33.90
2018-11-21T10:14:47.193Z,35.00
2018-11-21T10:15:47.073Z,36.10
2018-11-21T10:16:47.073Z,36.20
2018-11-21T10:17:47.068Z,33.90
2018-11-21T10:18:46.950Z,37.10
2018-11-21T10:19:46.947Z,37.90
2018-11-21T10:20:46.828Z,34.70
2018-11-21T10:21:46.827Z,35.00
2018-11-21T10:22:46.791Z,37.00
2018-11-21T10:23:46.710Z,35.90
2018-11-21T10:24:46.709Z,36.50
2018-11-21T10:25:46.587Z,35.20
2018-11-21T10:26:46.589Z,36.40
2018-11-21T10:27:46.472Z,36.70
2018-11-21T10:28:46.469Z,36.30
2018-11-21T10:29:46.468Z,35.10
2018-11-21T10:30:46.347Z,34.50
2018-11-21T10:31:46.348Z,35.90
2018-11-21T10:32:46.227Z,37.50
2018-11-21T10:33:46.226Z,34.80
2018-11-21T10:34:46.226Z,35.90
2018-11-21T10:35:46.105Z,34.40
2018-11-21T10:36:46.106Z,32.90
2018-11-21T10:37:45.985Z,35.70
2018-11-21T10:38:46.000Z,35.80
2018-11-21T10:39:45.984Z,35.70
2018-11-21T10:40:45.866Z,34.20
2018-11-21T10:41:45.864Z,33.70
2018-11-21T10:42:45.747Z,35.00
2018-11-21T10:43:45.743Z,33.00
2018-11-21T10:44:45.713Z,33.80
2018-11-21T10:45:45.623Z,33.70
2018-11-21T10:46:45.624Z,34.30
2018-11-21T10:47:45.502Z,33.90
2018-11-21T10:48:45.503Z,33.40
2018-11-21T10:49:45.381Z,34.80
2018-11-21T10:50:45.383Z,38.10
2018-11-21T10:51:45.384Z,34.50
2018-11-21T10:52:45.278Z,34.30
2018-11-21T10:53:45.265Z,35.40
2018-11-21T10:54:45.142Z,34.40
2018-11-21T10:55:45.143Z,34.30
2018-11-21T10:56:45.140Z,35.20
2018-11-21T10:57:45.023Z,33.30
2018-11-21T10:58:45.022Z,34.90
2018-11-21T10:59:44.902Z,36.40
2018-11-21T11:00:44.899Z,33.20
2018-11-21T11:01:44.899Z,36.90
2018-11-21T11:02:44.780Z,34.40
2018-11-21T11:03:44.781Z,33.30
2018-11-21T11:04:44.663Z,34.60
2018-11-21T11:05:44.659Z,33.70
2018-11-21T11:06:44.657Z,33.90
2018-11-21T11:07:44.542Z,34.90
2018-11-21T11:08:44.537Z,33.50
2018-11-21T11:09:44.417Z,32.80
2018-11-21T11:10:44.417Z,33.20
2018-11-21T11:11:44.300Z,32.40
2018-11-21T11:12:44.297Z,35.50
2018-11-21T11:13:44.298Z,34.00
2018-11-21T11:14:44.178Z,34.20
2018-11-21T11:15:44.176Z,35.80
2018-11-21T11:16:44.059Z,32.10
2018-11-21T11:17:44.057Z,29.70
2018-11-21T11:18:44.057Z,32.30
2018-11-21T11:19:43.935Z,31.20
2018-11-21T11:20:43.943Z,32.80
2018-11-21T11:21:43.817Z,33.30
2018-11-21T11:22:43.815Z,31.20
2018-11-21T11:23:43.817Z,30.90
2018-11-21T11:24:43.696Z,34.90
2018-11-21T11:25:43.699Z,29.20
2018-11-21T11:26:43.573Z,30.40
2018-11-21T11:27:43.575Z,29.40
2018-11-21T11:28:43.577Z,34.30
2018-11-21T11:29:43.453Z,31.10
2018-11-21T11:30:43.455Z,30.30
2018-11-21T11:31:43.336Z,27.60
2018-11-21T11:32:43.331Z,28.90
2018-11-21T11:33:43.335Z,32.00
2018-11-21T11:34:43.213Z,35.20
2018-11-21T11:35:43.212Z,29.50
2018-11-21T11:36:43.092Z,88.10
2018-11-21T11:37:43.099Z,38.20
2018-11-21T11:38:43.091Z,63.60
2018-11-21T11:39:42.972Z,33.00
2018-11-21T11:40:42.978Z,36.60
2018-11-21T11:41:42.852Z,32.90
2018-11-21T11:42:42.851Z,37.90
2018-11-21T11:43:42.813Z,39.30
2018-11-21T11:44:42.730Z,40.60
2018-11-21T11:45:42.731Z,124.10
2018-11-21T11:46:42.612Z,27.50
2018-11-21T11:47:42.608Z,27.50
2018-11-21T11:48:42.575Z,27.00
2018-11-21T11:49:42.490Z,26.90
2018-11-21T11:50:42.489Z,31.10
2018-11-21T11:51:42.369Z,28.90
2018-11-21T11:52:42.372Z,31.40
2018-11-21T11:53:42.331Z,30.40
2018-11-21T11:54:42.252Z,38.00
2018-11-21T11:55:42.256Z,30.30
2018-11-21T11:56:42.128Z,29.50
2018-11-21T11:57:42.127Z,37.60
2018-11-21T11:58:42.091Z,87.50
2018-11-21T11:59:42.009Z,38.20
2018-11-21T12:00:42.008Z,26.90
2018-11-21T12:01:41.885Z,26.80
2018-11-21T12:02:41.887Z,29.30
2018-11-21T12:03:41.852Z,27.80
2018-11-21T12:04:41.765Z,27.60
2018-11-21T12:05:41.768Z,43.00
2018-11-21T12:06:41.646Z,40.70
2018-11-21T12:07:41.646Z,30.00
2018-11-21T12:08:41.614Z,27.60
2018-11-21T12:09:41.530Z,28.20
2018-11-21T12:10:41.529Z,25.10
2018-11-21T12:11:41.403Z,26.90
2018-11-21T12:12:41.407Z,27.20
2018-11-21T12:13:41.367Z,27.80
2018-11-21T12:14:41.284Z,27.80
2018-11-21T12:15:41.286Z,29.50
2018-11-21T12:16:41.163Z,28.50
2018-11-21T12:17:41.165Z,28.40
2018-11-21T12:18:41.128Z,65.30
2018-11-21T12:19:41.049Z,26.00
2018-11-21T12:20:41.047Z,28.30
2018-11-21T12:21:40.924Z,25.70
2018-11-21T12:22:40.922Z,26.10
2018-11-21T12:23:40.883Z,25.80
2018-11-21T12:24:40.804Z,26.30
2018-11-21T12:25:40.809Z,24.30
2018-11-21T12:26:40.681Z,26.70
2018-11-21T12:27:40.681Z,30.40
2018-11-21T12:28:40.738Z,38.40
2018-11-21T12:29:42.049Z,29.10
2018-11-21T12:30:40.561Z,28.40
2018-11-21T12:31:40.439Z,27.40
2018-11-21T12:32:40.440Z,27.30
2018-11-21T12:33:40.439Z,25.70
2018-11-21T12:34:40.321Z,26.70
2018-11-21T12:35:40.321Z,26.00
2018-11-21T12:36:40.202Z,26.70
2018-11-21T12:37:40.207Z,27.10
2018-11-21T12:38:40.201Z,27.30
2018-11-21T12:39:40.079Z,26.20
2018-11-21T12:40:40.086Z,26.90
2018-11-21T12:41:39.973Z,26.60
2018-11-21T12:42:39.962Z,25.70
2018-11-21T12:43:39.957Z,26.00
2018-11-21T12:44:39.836Z,24.70
2018-11-21T12:45:39.840Z,25.80
2018-11-21T12:46:39.719Z,24.50
2018-11-21T12:47:39.724Z,26.10
2018-11-21T12:48:39.715Z,26.10
2018-11-21T12:49:39.595Z,25.40
2018-11-21T12:50:39.603Z,26.10
2018-11-21T12:51:39.478Z,25.90